Portada
METAR-TAF:

METAR-TAF

Aeroports :

Pohnpei, Micronèsia

latitud: 06-59N, longitud: 158-12E, altitud: 2 m

Observació

L'informe es va fer fa 12 hores i 48 minuts, a les 04:51 UTC
Vent 6 kt del Nord-Oest
Temperatura 29°C
Humitat 84%
Pressió 1006 hPa
Visibilitat: 24.1 km
Núvols disperses a una alçada de 1800 ft
Cel ennuvolat a una alçada de 13000 ft
Cel cobert a una alçada de 30000 ft

METAR: PTPN 210451Z 32006KT 15SM SCT018 BKN130 OVC300 29/26 A2971 RMK LAST

Hora: 04:39 (17:39 UTC)

Pronòstic

L'informe es va fer fa 18 hores i 6 minuts, a les 23:33 UTC
Pronòstic vàlid del 21 a les 00 UTC al 21 a les 24 UTC
Vent 6 kt amb direcció variable
Visibilitat: 10 km
Núvols disperses a una alçada de 1800 ft
Cel ennuvolat a una alçada de 13000 ft
xàfecs en les proximitats
Temporalment
l' 21 a les 00 UTC al 21 a les 04 UTC
Cel ennuvolat a una alçada de 1800 ft
Cel ennuvolat a una alçada de 13000 ft
xàfecs de pluja

TAF: PTPN 202333Z 2100/2124 VRB06KT P6SM VCSH SCT018 BKN130 TEMPO 2100/2104 -SHRA BKN018 BKN130

Observacions i pronòstics meteorològics de més de 4000 aeroports (METAR i TAF).

Les estacions disponibles són els punts grocs i vermells al mapa.

Posi el ratolí al punt desitjat per veure el nom de l'estació.

Feu clic per veure les observacions i els pronòstics meteorològics.

Per canviar el mapa: feu clic els botons verds amb una creu de color negre per apropar; al botó verd amb un guió per allunyar la imatge; o en les fletxes verdes per a mapes adjacents.


METAR-TAF: